createdAt,value
2018-08-18T00:00:31.432Z,0
2018-08-18T00:01:11.989Z,0
2018-08-18T00:01:52.549Z,0
2018-08-18T00:02:33.157Z,0
2018-08-18T00:03:13.814Z,0
2018-08-18T00:03:54.380Z,0
2018-08-18T00:04:34.961Z,0
2018-08-18T00:05:15.552Z,0
2018-08-18T00:05:56.121Z,0
2018-08-18T00:06:36.685Z,0
2018-08-18T00:07:17.249Z,0
2018-08-18T00:07:57.820Z,0
2018-08-18T00:08:38.399Z,0
2018-08-18T00:09:18.958Z,0
2018-08-18T00:09:59.530Z,0
2018-08-18T00:10:40.090Z,0
2018-08-18T00:11:20.649Z,0
2018-08-18T00:12:01.209Z,0
2018-08-18T00:12:41.786Z,0
2018-08-18T00:13:22.340Z,0
2018-08-18T00:14:02.922Z,0
2018-08-18T00:14:43.512Z,0
2018-08-18T00:15:24.093Z,0
2018-08-18T00:16:04.658Z,0
2018-08-18T00:16:45.847Z,0
2018-08-18T00:17:26.407Z,0
2018-08-18T00:18:06.971Z,0
2018-08-18T00:18:47.536Z,0
2018-08-18T00:19:28.108Z,0
2018-08-18T00:20:08.677Z,0
2018-08-18T00:20:49.242Z,0
2018-08-18T00:21:29.801Z,0
2018-08-18T00:22:10.374Z,0
2018-08-18T00:22:50.975Z,0
2018-08-18T00:23:31.577Z,0
2018-08-18T00:24:12.138Z,0
2018-08-18T00:24:52.700Z,0
2018-08-18T00:25:33.272Z,0
2018-08-18T00:26:13.844Z,0
2018-08-18T00:26:54.441Z,0
2018-08-18T00:27:34.989Z,0
2018-08-18T00:28:15.554Z,0
2018-08-18T00:28:56.114Z,0
2018-08-18T00:29:36.681Z,0
2018-08-18T00:30:17.279Z,0
2018-08-18T00:30:57.838Z,0
2018-08-18T00:31:38.395Z,0
2018-08-18T00:32:18.971Z,0
2018-08-18T00:32:59.533Z,0
2018-08-18T00:33:40.151Z,0
2018-08-18T00:34:20.824Z,0
2018-08-18T00:35:01.279Z,0
2018-08-18T00:35:41.838Z,0
2018-08-18T00:36:22.400Z,0
2018-08-18T00:37:02.971Z,0
2018-08-18T00:37:43.551Z,0
2018-08-18T00:38:24.133Z,0
2018-08-18T00:39:04.696Z,0
2018-08-18T00:39:45.264Z,0
2018-08-18T00:40:25.829Z,0
2018-08-18T00:41:06.394Z,0
2018-08-18T00:41:46.965Z,0
2018-08-18T00:42:27.572Z,0
2018-08-18T00:43:08.141Z,0
2018-08-18T00:43:48.697Z,0
2018-08-18T00:44:29.267Z,0
2018-08-18T00:45:09.815Z,0
2018-08-18T00:45:50.389Z,0
2018-08-18T00:46:30.951Z,0
2018-08-18T00:47:11.519Z,0
2018-08-18T00:47:52.076Z,0
2018-08-18T00:48:32.641Z,0
2018-08-18T00:49:13.219Z,0
2018-08-18T00:49:53.785Z,0
2018-08-18T00:50:34.349Z,0
2018-08-18T00:51:14.927Z,0
2018-08-18T00:51:55.540Z,0
2018-08-18T00:52:36.088Z,0
2018-08-18T00:53:16.688Z,0
2018-08-18T00:53:57.309Z,0
2018-08-18T00:54:37.934Z,0
2018-08-18T00:55:18.503Z,0
2018-08-18T00:55:59.084Z,0
2018-08-18T00:56:39.663Z,0
2018-08-18T00:57:20.228Z,0
2018-08-18T00:58:00.807Z,0
2018-08-18T00:58:41.398Z,0
2018-08-18T00:59:21.960Z,0
2018-08-18T01:00:02.550Z,0
2018-08-18T01:00:43.097Z,0
2018-08-18T01:01:23.671Z,0
2018-08-18T01:02:04.246Z,0
2018-08-18T01:02:44.851Z,0
2018-08-18T01:03:25.408Z,0
2018-08-18T01:04:05.968Z,0
2018-08-18T01:04:46.578Z,0
2018-08-18T01:05:27.163Z,0
2018-08-18T01:06:07.737Z,0
2018-08-18T01:06:48.319Z,0
2018-08-18T01:07:28.890Z,0
2018-08-18T01:08:09.479Z,0
2018-08-18T01:08:50.091Z,0
2018-08-18T01:09:30.654Z,0
2018-08-18T01:10:11.228Z,0
2018-08-18T01:10:51.820Z,0
2018-08-18T01:11:32.531Z,0
2018-08-18T01:12:12.974Z,0
2018-08-18T01:12:53.503Z,0
2018-08-18T01:13:34.119Z,0
2018-08-18T01:14:14.725Z,0
2018-08-18T01:14:55.404Z,0
2018-08-18T01:15:35.801Z,0
2018-08-18T01:16:16.340Z,0
2018-08-18T01:16:56.939Z,0
2018-08-18T01:17:37.515Z,0
2018-08-18T01:18:18.079Z,0
2018-08-18T01:18:58.627Z,0
2018-08-18T01:19:39.191Z,0
2018-08-18T01:20:20.022Z,0
2018-08-18T01:21:00.637Z,0
2018-08-18T01:21:41.203Z,0
2018-08-18T01:22:21.764Z,0
2018-08-18T01:23:02.356Z,0
2018-08-18T01:23:42.918Z,0
2018-08-18T01:24:23.487Z,0
2018-08-18T01:25:04.092Z,0
2018-08-18T01:25:44.671Z,0
2018-08-18T01:26:25.254Z,0
2018-08-18T01:27:05.849Z,0
2018-08-18T01:27:46.377Z,0
2018-08-18T01:28:26.943Z,0
2018-08-18T01:29:07.515Z,0
2018-08-18T01:29:48.105Z,0
2018-08-18T01:30:28.668Z,0
2018-08-18T01:31:09.229Z,0
2018-08-18T01:31:49.789Z,0
2018-08-18T01:32:30.357Z,0
2018-08-18T01:33:10.935Z,0
2018-08-18T01:33:51.485Z,0
2018-08-18T01:34:32.041Z,0
2018-08-18T01:35:12.613Z,0
2018-08-18T01:35:53.168Z,0
2018-08-18T01:36:33.763Z,0
2018-08-18T01:37:14.322Z,0
2018-08-18T01:37:54.896Z,0
2018-08-18T01:38:35.486Z,0
2018-08-18T01:39:16.062Z,0
2018-08-18T01:39:56.645Z,0
2018-08-18T01:40:37.251Z,0
2018-08-18T01:41:17.811Z,0
2018-08-18T01:41:58.370Z,0
2018-08-18T01:42:38.926Z,0
2018-08-18T01:43:19.531Z,0
2018-08-18T01:44:00.127Z,0
2018-08-18T01:44:40.689Z,0
2018-08-18T01:45:21.265Z,0
2018-08-18T01:46:01.844Z,0
2018-08-18T01:46:42.422Z,0
2018-08-18T01:47:23.033Z,0
2018-08-18T01:48:03.554Z,0
2018-08-18T01:48:44.122Z,0
2018-08-18T01:49:24.688Z,0
2018-08-18T01:50:05.266Z,0
2018-08-18T01:50:45.850Z,0
2018-08-18T01:51:26.419Z,0
2018-08-18T01:52:06.997Z,0
2018-08-18T01:52:47.584Z,0
2018-08-18T01:53:28.148Z,0
2018-08-18T01:54:08.715Z,0
2018-08-18T01:54:49.284Z,0
2018-08-18T01:55:29.840Z,0
2018-08-18T01:56:10.430Z,0
2018-08-18T01:56:51.019Z,0
2018-08-18T01:57:31.631Z,0
2018-08-18T01:58:12.219Z,0
2018-08-18T01:58:52.831Z,0
2018-08-18T01:59:33.431Z,0
2018-08-18T02:00:13.987Z,0
2018-08-18T02:00:54.538Z,0
2018-08-18T02:01:35.118Z,0
2018-08-18T02:02:15.676Z,0
2018-08-18T02:02:56.234Z,0
2018-08-18T02:03:36.832Z,0
2018-08-18T02:04:17.412Z,0
2018-08-18T02:04:57.985Z,0
2018-08-18T02:05:38.579Z,0
2018-08-18T02:06:19.146Z,0
2018-08-18T02:06:59.707Z,0
2018-08-18T02:07:40.278Z,0
2018-08-18T02:08:20.846Z,0
2018-08-18T02:09:01.414Z,0
2018-08-18T02:09:41.973Z,0
2018-08-18T02:10:22.541Z,0
2018-08-18T02:11:03.142Z,0
2018-08-18T02:11:43.722Z,0
2018-08-18T02:12:24.316Z,0
2018-08-18T02:13:04.892Z,0
2018-08-18T02:13:45.454Z,0
2018-08-18T02:14:26.010Z,0
2018-08-18T02:15:06.580Z,0
2018-08-18T02:15:47.155Z,0
2018-08-18T02:16:27.725Z,0
2018-08-18T02:17:08.287Z,0
2018-08-18T02:17:48.844Z,0
2018-08-18T02:18:29.408Z,0
2018-08-18T02:19:09.981Z,0
2018-08-18T02:19:50.588Z,0
2018-08-18T02:20:31.100Z,0
2018-08-18T02:21:11.672Z,0
2018-08-18T02:21:52.228Z,0
2018-08-18T02:22:32.787Z,0
2018-08-18T02:23:13.351Z,0
2018-08-18T02:23:53.897Z,0
2018-08-18T02:24:34.463Z,0
2018-08-18T02:25:15.081Z,0
2018-08-18T02:25:55.624Z,0
2018-08-18T02:26:36.189Z,0
2018-08-18T02:27:16.756Z,0
2018-08-18T02:27:57.316Z,0
2018-08-18T02:28:37.891Z,0
2018-08-18T02:29:18.562Z,0
2018-08-18T02:29:59.143Z,0
2018-08-18T02:30:39.707Z,0
2018-08-18T02:31:20.286Z,0
2018-08-18T02:32:00.845Z,0
2018-08-18T02:32:41.417Z,0
2018-08-18T02:33:21.987Z,0
2018-08-18T02:34:02.562Z,0
2018-08-18T02:34:43.174Z,0
2018-08-18T02:35:23.725Z,0
2018-08-18T02:36:04.295Z,0
2018-08-18T02:36:44.876Z,0
2018-08-18T02:37:25.424Z,0
2018-08-18T02:38:06.004Z,0
2018-08-18T02:38:46.603Z,0
2018-08-18T02:39:27.151Z,0
2018-08-18T02:40:07.821Z,0
2018-08-18T02:40:48.281Z,0
2018-08-18T02:41:28.849Z,0
2018-08-18T02:42:09.486Z,0
2018-08-18T02:42:50.065Z,0
2018-08-18T02:43:30.623Z,0
2018-08-18T02:44:11.224Z,0
2018-08-18T02:44:51.789Z,0
2018-08-18T02:45:32.376Z,0
2018-08-18T02:46:12.940Z,0
2018-08-18T02:46:53.513Z,0
2018-08-18T02:47:34.103Z,0
2018-08-18T02:48:14.742Z,0
2018-08-18T02:48:55.425Z,0
2018-08-18T02:49:36.014Z,0
2018-08-18T02:50:16.573Z,0
2018-08-18T02:50:57.137Z,0
2018-08-18T02:51:37.704Z,0
2018-08-18T02:52:18.293Z,0
2018-08-18T02:52:58.889Z,0
2018-08-18T02:53:39.454Z,0
2018-08-18T02:54:20.015Z,0
2018-08-18T02:55:00.587Z,0
2018-08-18T02:55:41.154Z,0
2018-08-18T02:56:21.725Z,0
2018-08-18T02:57:02.313Z,0
2018-08-18T02:57:42.903Z,0
2018-08-18T02:58:23.482Z,0
2018-08-18T02:59:04.048Z,0
2018-08-18T02:59:44.606Z,0
2018-08-18T03:00:25.174Z,0
2018-08-18T03:01:05.732Z,0
2018-08-18T03:01:46.297Z,0
2018-08-18T03:02:26.869Z,0
2018-08-18T03:03:07.444Z,0
2018-08-18T03:03:48.006Z,0
2018-08-18T03:04:28.603Z,0
2018-08-18T03:05:09.211Z,0
2018-08-18T03:05:49.780Z,0
2018-08-18T03:06:30.340Z,0
2018-08-18T03:07:10.914Z,0
2018-08-18T03:07:51.541Z,0
2018-08-18T03:08:32.026Z,0
2018-08-18T03:09:12.571Z,0
2018-08-18T03:09:53.148Z,0
2018-08-18T03:10:33.704Z,0
2018-08-18T03:11:14.261Z,0
2018-08-18T03:11:54.824Z,0
2018-08-18T03:12:35.393Z,0
2018-08-18T03:13:15.967Z,0
2018-08-18T03:13:56.526Z,0
2018-08-18T03:14:37.124Z,0
2018-08-18T03:15:17.688Z,0
2018-08-18T03:15:58.250Z,0
2018-08-18T03:16:38.811Z,0
2018-08-18T03:17:19.408Z,0
2018-08-18T03:17:59.987Z,0
2018-08-18T03:18:40.556Z,0
2018-08-18T03:19:21.109Z,0
2018-08-18T03:20:01.670Z,0
2018-08-18T03:20:42.244Z,0
2018-08-18T03:21:22.822Z,0
2018-08-18T03:22:03.411Z,0
2018-08-18T03:22:43.973Z,0
2018-08-18T03:23:24.521Z,0
2018-08-18T03:24:05.081Z,0
2018-08-18T03:24:45.665Z,0
2018-08-18T03:25:26.241Z,0
2018-08-18T03:26:06.815Z,0
2018-08-18T03:26:47.383Z,0
2018-08-18T03:27:27.945Z,0
2018-08-18T03:28:08.499Z,0
2018-08-18T03:28:49.061Z,0
2018-08-18T03:29:29.633Z,0
2018-08-18T03:30:10.201Z,0
2018-08-18T03:30:50.776Z,0
2018-08-18T03:31:31.352Z,0
2018-08-18T03:32:11.918Z,0
2018-08-18T03:32:52.501Z,0
2018-08-18T03:33:33.097Z,0
2018-08-18T03:34:13.710Z,0
2018-08-18T03:34:54.282Z,0
2018-08-18T03:35:34.857Z,0
2018-08-18T03:36:15.416Z,0
2018-08-18T03:36:56.014Z,0
2018-08-18T03:37:36.579Z,0
2018-08-18T03:38:17.163Z,0
2018-08-18T03:38:57.717Z,0
2018-08-18T03:39:38.325Z,0
2018-08-18T03:40:18.881Z,0
2018-08-18T03:40:59.446Z,0
2018-08-18T03:41:40.024Z,0
2018-08-18T03:42:20.611Z,0
2018-08-18T03:43:01.212Z,0
2018-08-18T03:43:41.780Z,0
2018-08-18T03:44:22.363Z,0
2018-08-18T03:45:02.928Z,0
2018-08-18T03:45:43.501Z,0
2018-08-18T03:46:24.065Z,0
2018-08-18T03:47:04.625Z,0
2018-08-18T03:47:45.178Z,0
2018-08-18T03:48:25.761Z,0
2018-08-18T03:49:06.345Z,0
2018-08-18T03:49:46.900Z,0
2018-08-18T03:50:27.462Z,0
2018-08-18T03:51:08.030Z,0
2018-08-18T03:51:48.596Z,0
2018-08-18T03:52:29.322Z,0
2018-08-18T03:53:09.769Z,0
2018-08-18T03:53:50.376Z,0
2018-08-18T03:54:30.960Z,0
2018-08-18T03:55:11.566Z,0
2018-08-18T03:55:52.127Z,0
2018-08-18T03:56:32.696Z,0
2018-08-18T03:57:13.264Z,0
2018-08-18T03:57:53.844Z,0
2018-08-18T03:58:34.397Z,0
2018-08-18T03:59:14.994Z,0
2018-08-18T03:59:55.585Z,0
2018-08-18T04:00:36.169Z,0
2018-08-18T04:01:16.835Z,0
2018-08-18T04:01:57.415Z,0
2018-08-18T04:02:37.951Z,0
2018-08-18T04:03:18.516Z,0
2018-08-18T04:03:59.107Z,0
2018-08-18T04:04:39.646Z,0
2018-08-18T04:05:20.213Z,0
2018-08-18T04:06:00.766Z,0
2018-08-18T04:06:41.324Z,0
2018-08-18T04:07:21.886Z,0
2018-08-18T04:08:02.457Z,0
2018-08-18T04:08:43.010Z,0
2018-08-18T04:09:23.625Z,0
2018-08-18T04:10:04.134Z,0
2018-08-18T04:10:44.729Z,0
2018-08-18T04:11:25.306Z,0
2018-08-18T04:12:05.899Z,0
2018-08-18T04:12:46.498Z,0
2018-08-18T04:13:27.098Z,5
2018-08-18T04:14:07.674Z,5
2018-08-18T04:14:48.280Z,5
2018-08-18T04:15:28.879Z,5
2018-08-18T04:16:09.448Z,5
2018-08-18T04:16:50.026Z,5
2018-08-18T04:17:30.589Z,5
2018-08-18T04:18:11.170Z,5
2018-08-18T04:18:51.773Z,5
2018-08-18T04:19:32.313Z,5
2018-08-18T04:20:12.903Z,10
2018-08-18T04:20:53.475Z,10
2018-08-18T04:21:34.045Z,10
2018-08-18T04:22:14.594Z,10
2018-08-18T04:22:55.159Z,10
2018-08-18T04:23:35.729Z,10
2018-08-18T04:24:16.273Z,10
2018-08-18T04:24:56.856Z,10
2018-08-18T04:25:37.409Z,10
2018-08-18T04:26:17.975Z,15
2018-08-18T04:26:58.529Z,15
2018-08-18T04:27:39.085Z,15
2018-08-18T04:28:19.652Z,15
2018-08-18T04:29:00.211Z,15
2018-08-18T04:29:40.789Z,15
2018-08-18T04:30:21.353Z,20
2018-08-18T04:31:01.933Z,20
2018-08-18T04:31:42.501Z,20
2018-08-18T04:32:23.069Z,20
2018-08-18T04:33:03.637Z,25
2018-08-18T04:33:44.203Z,25
2018-08-18T04:34:24.771Z,25
2018-08-18T04:35:05.329Z,30
2018-08-18T04:35:45.890Z,30
2018-08-18T04:36:26.446Z,30
2018-08-18T04:37:07.032Z,30
2018-08-18T04:37:47.596Z,30
2018-08-18T04:38:28.156Z,30
2018-08-18T04:39:08.718Z,30
2018-08-18T04:39:49.342Z,30
2018-08-18T04:40:29.902Z,35
2018-08-18T04:41:10.461Z,35
2018-08-18T04:41:51.018Z,35
2018-08-18T04:42:31.585Z,35
2018-08-18T04:43:12.148Z,35
2018-08-18T04:43:52.788Z,40
2018-08-18T04:44:33.273Z,40
2018-08-18T04:45:13.837Z,40
2018-08-18T04:45:54.403Z,35
2018-08-18T04:46:34.978Z,35
2018-08-18T04:47:15.562Z,35
2018-08-18T04:47:56.134Z,35
2018-08-18T04:48:36.693Z,35
2018-08-18T04:49:17.245Z,40
2018-08-18T04:49:57.802Z,40
2018-08-18T04:50:38.555Z,40
2018-08-18T04:51:18.965Z,40
2018-08-18T04:51:59.528Z,40
2018-08-18T04:52:40.116Z,45
2018-08-18T04:53:20.690Z,45
2018-08-18T04:54:01.335Z,45
2018-08-18T04:54:41.898Z,45
2018-08-18T04:55:22.458Z,45
2018-08-18T04:56:03.044Z,50
2018-08-18T04:56:43.614Z,50
2018-08-18T04:57:24.217Z,50
2018-08-18T04:58:04.766Z,50
2018-08-18T04:58:45.313Z,55
2018-08-18T04:59:25.913Z,55
2018-08-18T05:00:06.434Z,55
2018-08-18T05:00:47.031Z,55
2018-08-18T05:01:27.634Z,60
2018-08-18T05:02:08.196Z,60
2018-08-18T05:02:48.764Z,60
2018-08-18T05:03:29.574Z,65
2018-08-18T05:04:10.039Z,65
2018-08-18T05:04:50.608Z,65
2018-08-18T05:05:31.156Z,70
2018-08-18T05:06:11.729Z,70
2018-08-18T05:06:52.290Z,75
2018-08-18T05:07:32.838Z,80
2018-08-18T05:08:13.411Z,80
2018-08-18T05:08:54.002Z,85
2018-08-18T05:09:34.538Z,85
2018-08-18T05:10:15.109Z,85
2018-08-18T05:10:55.667Z,90
2018-08-18T05:11:36.333Z,90
2018-08-18T05:12:16.817Z,90
2018-08-18T05:12:57.389Z,90
2018-08-18T05:13:37.944Z,95
2018-08-18T05:14:18.516Z,95
2018-08-18T05:14:59.085Z,95
2018-08-18T05:15:39.652Z,95
2018-08-18T05:16:20.219Z,95
2018-08-18T05:17:00.781Z,95
2018-08-18T05:17:41.333Z,95
2018-08-18T05:18:21.893Z,95
2018-08-18T05:19:02.651Z,95
2018-08-18T05:19:43.046Z,95
2018-08-18T05:20:23.971Z,95
2018-08-18T05:21:04.537Z,100
2018-08-18T05:21:45.108Z,100
2018-08-18T05:22:25.751Z,100
2018-08-18T05:23:06.619Z,105
2018-08-18T05:23:47.195Z,105
2018-08-18T05:24:27.784Z,110
2018-08-18T05:25:08.364Z,110
2018-08-18T05:25:48.973Z,115
2018-08-18T05:26:29.571Z,115
2018-08-18T05:27:10.167Z,115
2018-08-18T05:27:50.717Z,115
2018-08-18T05:28:31.299Z,120
2018-08-18T05:29:11.911Z,120
2018-08-18T05:29:52.479Z,120
2018-08-18T05:30:33.041Z,120
2018-08-18T05:31:13.617Z,115
2018-08-18T05:31:54.203Z,115
2018-08-18T05:32:34.785Z,110
2018-08-18T05:33:15.335Z,110
2018-08-18T05:33:55.907Z,110
2018-08-18T05:34:36.560Z,105
2018-08-18T05:35:17.123Z,105
2018-08-18T05:35:57.691Z,105
2018-08-18T05:36:38.428Z,105
2018-08-18T05:37:18.857Z,105
2018-08-18T05:37:59.465Z,105
2018-08-18T05:38:40.057Z,115
2018-08-18T05:39:20.619Z,120
2018-08-18T05:40:01.202Z,130
2018-08-18T05:40:41.754Z,135
2018-08-18T05:41:22.322Z,135
2018-08-18T05:42:02.905Z,140
2018-08-18T05:42:43.510Z,135
2018-08-18T05:43:24.140Z,130
2018-08-18T05:44:04.771Z,120
2018-08-18T05:44:45.417Z,115
2018-08-18T05:45:26.005Z,115
2018-08-18T05:46:06.565Z,115
2018-08-18T05:46:47.130Z,110
2018-08-18T05:47:27.841Z,115
2018-08-18T05:48:08.346Z,115
2018-08-18T05:48:48.920Z,125
2018-08-18T05:49:29.482Z,130
2018-08-18T05:50:10.052Z,135
2018-08-18T05:50:50.610Z,150
2018-08-18T05:51:31.170Z,155
2018-08-18T05:52:11.772Z,160
2018-08-18T05:52:52.332Z,155
2018-08-18T05:53:32.891Z,160
2018-08-18T05:54:13.475Z,170
2018-08-18T05:54:54.040Z,170
2018-08-18T05:55:34.624Z,175
2018-08-18T05:56:15.184Z,180
2018-08-18T05:56:55.743Z,180
2018-08-18T05:57:36.301Z,185
2018-08-18T05:58:16.896Z,190
2018-08-18T05:58:57.482Z,185
2018-08-18T05:59:38.080Z,185
2018-08-18T06:00:18.634Z,185
2018-08-18T06:00:59.188Z,195
2018-08-18T06:01:39.748Z,195
2018-08-18T06:02:20.326Z,195
2018-08-18T06:03:00.957Z,195
2018-08-18T06:03:41.565Z,205
2018-08-18T06:04:22.120Z,270
2018-08-18T06:05:02.671Z,400
2018-08-18T06:05:43.283Z,645
2018-08-18T06:06:23.848Z,835
2018-08-18T06:07:04.421Z,935
2018-08-18T06:07:45.020Z,915
2018-08-18T06:08:25.626Z,775
2018-08-18T06:09:06.197Z,595
2018-08-18T06:09:47.089Z,775
2018-08-18T06:12:21.524Z,540
2018-08-18T06:13:03.854Z,615
2018-08-18T06:13:44.567Z,775
2018-08-18T06:14:25.642Z,880
2018-08-18T06:15:06.268Z,895
2018-08-18T06:15:46.831Z,925
2018-08-18T06:16:27.398Z,865
2018-08-18T06:17:07.992Z,830
2018-08-18T06:17:48.912Z,910
2018-08-18T06:18:29.523Z,900
2018-08-18T06:19:10.359Z,935
2018-08-18T06:19:51.049Z,990
2018-08-18T06:20:31.725Z,985
2018-08-18T06:21:12.413Z,965
2018-08-18T06:21:52.938Z,990
2018-08-18T06:22:33.914Z,1015
2018-08-18T06:23:14.725Z,1020
2018-08-18T06:23:56.443Z,1025
2018-08-18T06:24:37.011Z,1065
2018-08-18T06:25:17.588Z,1030
2018-08-18T06:25:58.131Z,900
2018-08-18T06:26:38.724Z,630
2018-08-18T06:27:19.305Z,1030
2018-08-18T06:27:59.898Z,1080
2018-08-18T06:28:40.465Z,1050
2018-08-18T06:29:21.013Z,980
2018-08-18T06:30:01.565Z,910
2018-08-18T06:30:42.141Z,920
2018-08-18T06:31:22.696Z,955
2018-08-18T06:32:03.262Z,1005
2018-08-18T06:32:43.826Z,1150
2018-08-18T06:33:24.399Z,1200
2018-08-18T06:34:04.974Z,1150
2018-08-18T06:34:45.681Z,1060
2018-08-18T06:35:26.117Z,1040
2018-08-18T06:36:06.773Z,1060
2018-08-18T06:36:47.269Z,1105
2018-08-18T06:37:27.839Z,1125
2018-08-18T06:38:08.416Z,1010
2018-08-18T06:38:49.004Z,1100
2018-08-18T06:39:29.564Z,1090
2018-08-18T06:40:10.135Z,1060
2018-08-18T06:40:50.710Z,1110
2018-08-18T06:41:31.421Z,1140
2018-08-18T06:42:11.895Z,1145
2018-08-18T06:42:52.465Z,1170
2018-08-18T06:43:33.043Z,1200
2018-08-18T06:44:13.594Z,1195
2018-08-18T06:44:54.182Z,1165
2018-08-18T06:45:34.778Z,1200
2018-08-18T06:46:15.389Z,1235
2018-08-18T06:46:55.914Z,1210
2018-08-18T06:47:36.474Z,1140
2018-08-18T06:48:17.035Z,1135
2018-08-18T06:48:57.600Z,1155
2018-08-18T06:49:38.175Z,1220
2018-08-18T06:50:18.773Z,1215
2018-08-18T06:50:59.354Z,1200
2018-08-18T06:51:39.959Z,1120
2018-08-18T06:52:20.544Z,1135
2018-08-18T06:53:01.112Z,955
2018-08-18T06:53:41.711Z,1180
2018-08-18T06:54:22.374Z,1165
2018-08-18T06:55:03.078Z,1225
2018-08-18T06:55:43.561Z,1235
2018-08-18T06:56:24.291Z,1225
2018-08-18T06:57:04.875Z,1280
2018-08-18T06:57:45.435Z,1290
2018-08-18T06:58:26.015Z,1300
2018-08-18T06:59:06.586Z,1305
2018-08-18T06:59:47.158Z,1320
2018-08-18T07:00:27.717Z,1225
2018-08-18T07:01:08.281Z,1225
2018-08-18T07:01:48.850Z,1230
2018-08-18T07:02:29.426Z,1245
2018-08-18T07:03:10.023Z,1260
2018-08-18T07:03:50.573Z,1300
2018-08-18T07:04:31.131Z,1360
2018-08-18T07:05:11.702Z,1290
2018-08-18T07:05:52.297Z,1260
2018-08-18T07:06:32.852Z,1250
2018-08-18T07:07:13.419Z,1225
2018-08-18T07:07:53.980Z,1075
2018-08-18T07:08:34.551Z,1085
2018-08-18T07:09:15.147Z,1150
2018-08-18T07:09:55.724Z,1065
2018-08-18T07:10:36.288Z,1215
2018-08-18T07:11:16.901Z,950
2018-08-18T07:11:57.575Z,1250
2018-08-18T07:12:38.138Z,1285
2018-08-18T07:13:18.702Z,1365
2018-08-18T07:13:59.272Z,1435
2018-08-18T07:14:41.107Z,1430
2018-08-18T07:15:21.722Z,1425
2018-08-18T07:16:02.293Z,1375
2018-08-18T07:16:42.890Z,1385
2018-08-18T07:17:23.592Z,1400
2018-08-18T07:18:04.142Z,1415
2018-08-18T07:18:44.734Z,1380
2018-08-18T07:19:25.470Z,1415
2018-08-18T07:20:05.935Z,1340
2018-08-18T07:20:46.514Z,1280
2018-08-18T07:21:27.074Z,1350
2018-08-18T07:22:07.700Z,1270
2018-08-18T07:22:48.273Z,1190
2018-08-18T07:23:28.850Z,1165
2018-08-18T07:24:09.427Z,1125
2018-08-18T07:24:50.000Z,1135
2018-08-18T07:25:30.552Z,1125
2018-08-18T07:26:11.113Z,1175
2018-08-18T07:26:51.705Z,1140
2018-08-18T07:27:32.310Z,1080
2018-08-18T07:28:12.945Z,1055
2018-08-18T07:28:53.735Z,1050
2018-08-18T07:29:34.050Z,995
2018-08-18T07:30:14.650Z,930
2018-08-18T07:30:55.248Z,910
2018-08-18T07:31:35.819Z,875
2018-08-18T07:32:16.383Z,770
2018-08-18T07:32:56.979Z,735
2018-08-18T07:33:37.556Z,680
2018-08-18T07:34:18.123Z,680
2018-08-18T07:34:58.733Z,680
2018-08-18T07:35:39.302Z,655
2018-08-18T07:36:20.013Z,610
2018-08-18T07:37:00.639Z,580
2018-08-18T07:37:41.187Z,585
2018-08-18T07:38:21.810Z,520
2018-08-18T07:39:02.397Z,475
2018-08-18T07:39:42.948Z,520
2018-08-18T07:40:23.501Z,540
2018-08-18T07:41:04.089Z,530
2018-08-18T07:41:44.676Z,525
2018-08-18T07:42:25.247Z,495
2018-08-18T07:43:05.813Z,535
2018-08-18T07:43:46.396Z,575
2018-08-18T07:44:26.967Z,605
2018-08-18T07:45:07.538Z,600
2018-08-18T07:45:48.150Z,590
2018-08-18T07:46:28.890Z,555
2018-08-18T07:47:09.358Z,530
2018-08-18T07:47:49.927Z,540
2018-08-18T07:48:30.482Z,515
2018-08-18T07:49:11.062Z,550
2018-08-18T07:49:51.619Z,570
2018-08-18T07:50:32.180Z,505
2018-08-18T07:51:12.944Z,570
2018-08-18T07:51:53.528Z,545
2018-08-18T07:52:34.092Z,475
2018-08-18T07:53:14.768Z,365
2018-08-18T07:53:55.288Z,425
2018-08-18T07:54:35.832Z,370
2018-08-18T07:55:16.498Z,340
2018-08-18T07:55:57.097Z,345
2018-08-18T07:56:37.738Z,365
2018-08-18T07:57:18.329Z,300
2018-08-18T07:57:58.941Z,380
2018-08-18T07:58:39.518Z,410
2018-08-18T07:59:20.091Z,410
2018-08-18T08:00:00.783Z,395
2018-08-18T08:00:41.242Z,440
2018-08-18T08:01:21.877Z,480
2018-08-18T08:02:02.480Z,515
2018-08-18T08:02:43.114Z,485
2018-08-18T08:03:23.812Z,360
2018-08-18T08:04:04.384Z,285
2018-08-18T08:04:44.970Z,270
2018-08-18T08:05:25.546Z,250
2018-08-18T08:06:06.124Z,295
2018-08-18T08:06:46.721Z,330
2018-08-18T08:07:27.308Z,300
2018-08-18T08:08:07.893Z,225
2018-08-18T08:08:48.453Z,230
2018-08-18T08:09:29.024Z,205
2018-08-18T08:10:09.592Z,195
2018-08-18T08:10:50.159Z,170
2018-08-18T08:11:30.721Z,175
2018-08-18T08:12:11.293Z,175
2018-08-18T08:12:51.923Z,170
2018-08-18T08:13:32.461Z,160
2018-08-18T08:14:13.023Z,145
2018-08-18T08:14:53.644Z,145
2018-08-18T08:15:34.202Z,145
2018-08-18T08:16:14.766Z,140
2018-08-18T08:16:55.326Z,140
2018-08-18T08:17:35.898Z,145
2018-08-18T08:18:16.558Z,145
2018-08-18T08:18:57.047Z,150
2018-08-18T08:19:37.623Z,160
2018-08-18T08:20:18.181Z,160
2018-08-18T08:20:58.746Z,155
2018-08-18T08:21:39.318Z,145
2018-08-18T08:22:19.904Z,135
2018-08-18T08:23:00.575Z,125
2018-08-18T08:23:41.141Z,110
2018-08-18T08:24:21.710Z,105
2018-08-18T08:25:02.331Z,100
2018-08-18T08:25:42.920Z,95
2018-08-18T08:26:23.491Z,90
2018-08-18T08:27:04.066Z,85
2018-08-18T08:27:44.692Z,80
2018-08-18T08:28:25.284Z,80
2018-08-18T08:29:05.910Z,80
2018-08-18T08:29:46.474Z,85
2018-08-18T08:30:27.067Z,90
2018-08-18T08:31:07.634Z,95
2018-08-18T08:31:48.227Z,105
2018-08-18T08:32:28.787Z,110
2018-08-18T08:33:09.374Z,115
2018-08-18T08:33:49.921Z,120
2018-08-18T08:34:30.478Z,125
2018-08-18T08:35:11.042Z,135
2018-08-18T08:35:51.636Z,140
2018-08-18T08:36:32.189Z,145
2018-08-18T08:37:12.800Z,150
2018-08-18T08:37:53.385Z,150
2018-08-18T08:38:33.938Z,155
2018-08-18T08:39:14.514Z,155
2018-08-18T08:39:55.106Z,155
2018-08-18T08:40:35.676Z,160
2018-08-18T08:41:16.240Z,155
2018-08-18T08:41:56.808Z,150
2018-08-18T08:42:37.370Z,145
2018-08-18T08:43:17.961Z,145
2018-08-18T08:43:58.514Z,140
2018-08-18T08:44:39.068Z,140
2018-08-18T08:45:19.629Z,140
2018-08-18T08:46:00.198Z,135
2018-08-18T08:46:41.239Z,130
2018-08-18T08:47:22.094Z,130
2018-08-18T08:48:02.898Z,125
2018-08-18T08:48:43.672Z,125
2018-08-18T08:49:24.275Z,130
2018-08-18T08:50:04.837Z,135
2018-08-18T08:50:45.495Z,150
2018-08-18T08:51:26.254Z,150
2018-08-18T08:52:06.818Z,150
2018-08-18T08:52:47.397Z,150
2018-08-18T08:53:27.967Z,155
2018-08-18T08:54:08.562Z,155
2018-08-18T08:54:49.144Z,155
2018-08-18T08:55:29.713Z,145
2018-08-18T08:56:10.280Z,135
2018-08-18T08:56:50.841Z,120
2018-08-18T08:57:31.459Z,115
2018-08-18T08:58:12.029Z,105
2018-08-18T08:58:52.677Z,100
2018-08-18T08:59:33.161Z,100
2018-08-18T09:00:13.731Z,95
2018-08-18T09:00:54.308Z,95
2018-08-18T09:01:34.866Z,90
2018-08-18T09:02:15.445Z,90
2018-08-18T09:02:56.157Z,90
2018-08-18T09:03:36.716Z,95
2018-08-18T09:04:17.284Z,100
2018-08-18T09:04:57.857Z,95
2018-08-18T09:05:38.477Z,100
2018-08-18T09:06:19.021Z,105
2018-08-18T09:06:59.586Z,105
2018-08-18T09:07:40.248Z,110
2018-08-18T09:08:20.855Z,110
2018-08-18T09:09:01.419Z,110
2018-08-18T09:09:41.993Z,110
2018-08-18T09:10:22.654Z,110
2018-08-18T09:11:03.125Z,115
2018-08-18T09:11:43.693Z,115
2018-08-18T09:12:24.253Z,115
2018-08-18T09:13:04.814Z,125
2018-08-18T09:13:45.377Z,145
2018-08-18T09:14:25.972Z,145
2018-08-18T09:15:06.523Z,155
2018-08-18T09:15:47.141Z,170
2018-08-18T09:16:27.719Z,185
2018-08-18T09:17:08.270Z,200
2018-08-18T09:17:48.842Z,205
2018-08-18T09:18:29.412Z,210
2018-08-18T09:19:09.981Z,220
2018-08-18T09:19:50.548Z,230
2018-08-18T09:20:31.134Z,235
2018-08-18T09:21:12.834Z,250
2018-08-18T09:21:53.279Z,245
2018-08-18T09:22:33.868Z,245
2018-08-18T09:23:14.429Z,245
2018-08-18T09:23:55.030Z,230
2018-08-18T09:24:35.626Z,225
2018-08-18T09:25:16.183Z,215
2018-08-18T09:25:56.814Z,195
2018-08-18T09:26:37.344Z,175
2018-08-18T09:27:17.910Z,160
2018-08-18T09:27:58.479Z,150
2018-08-18T09:28:39.082Z,135
2018-08-18T09:29:19.666Z,125
2018-08-18T09:30:00.225Z,115
2018-08-18T09:30:40.794Z,105
2018-08-18T09:31:21.372Z,105
2018-08-18T09:32:01.989Z,105
2018-08-18T09:32:42.544Z,105
2018-08-18T09:33:23.152Z,105
2018-08-18T09:34:03.715Z,110
2018-08-18T09:34:44.299Z,110
2018-08-18T09:35:24.884Z,110
2018-08-18T09:36:05.440Z,110
2018-08-18T09:36:46.011Z,105
2018-08-18T09:37:26.585Z,105
2018-08-18T09:38:07.156Z,105
2018-08-18T09:38:47.721Z,95
2018-08-18T09:39:28.341Z,95